Time;durP1;ratioP1;P1;durP2;ratioP2;P2;SDS_P1;SDS_P2;PMS_P1;PMS_P2;Temp;Humidity;BMP_temperature;BMP_pressure;BME280_temperature;BME280_humidity;BME280_pressure;Samples;Min_cycle;Max_cycle;Signal;HPM_P1;HPM_P2
2022/05/01 00:01:06;;;;;;;;;12.00;10.25;;;;;13.35;42.70;102276.03;2395822;28;45437;-77
2022/05/01 00:02:16;;;;;;;;;12.50;10.00;;;;;13.35;42.66;102280.44;2397210;28;45213;-76
2022/05/01 00:03:34;;;;;;;;;10.00;9.00;;;;;13.34;42.35;102273.41;2392400;28;46846;-76
2022/05/01 00:04:45;;;;;;;;;12.00;9.75;;;;;13.34;42.70;102278.69;2393005;28;44686;-76
2022/05/01 00:05:55;;;;;;;;;11.50;8.75;;;;;13.35;42.30;102283.06;2389695;28;47221;-76
2022/05/01 00:07:06;;;;;;;;;9.50;9.25;;;;;13.35;42.65;102285.72;2394581;28;45191;-76
2022/05/01 00:08:17;;;;;;;;;13.50;12.25;;;;;13.36;42.99;102284.78;2401880;28;46245;-76
2022/05/01 00:09:27;;;;;;;;;15.50;13.25;;;;;13.36;42.85;102282.16;2399001;28;44733;-76
2022/05/01 00:10:37;;;;;;;;;10.50;10.50;;;;;13.34;42.63;102279.56;2395875;28;45284;-76
2022/05/01 00:11:48;;;;;;;;;15.25;12.00;;;;;13.33;42.85;102287.53;2402690;28;45218;-77
2022/05/01 00:12:58;;;;;;;;;11.50;10.75;;;;;13.31;42.73;102284.03;2392213;28;47235;-76
2022/05/01 00:14:09;;;;;;;;;9.00;8.00;;;;;13.31;42.87;102281.41;2385666;28;45247;-76
2022/05/01 00:15:19;;;;;;;;;12.50;11.25;;;;;13.31;42.85;102281.41;2385631;28;46255;-76
2022/05/01 00:16:29;;;;;;;;;14.25;13.25;;;;;13.27;42.67;102278.81;2391849;28;45542;-76
2022/05/01 00:17:40;;;;;;;;;13.50;12.00;;;;;13.23;42.96;102278.91;2401358;28;45444;-76
2022/05/01 00:18:51;;;;;;;;;16.25;13.75;;;;;13.20;42.87;102282.47;2400673;28;45548;-76
2022/05/01 00:20:01;;;;;;;;;12.50;12.50;;;;;13.19;43.01;102280.72;2398892;28;45267;-76
2022/05/01 00:21:12;;;;;;;;;16.75;11.75;;;;;13.17;43.33;102274.59;2399458;28;45460;-77
2022/05/01 00:22:22;;;;;;;;;14.25;12.50;;;;;13.18;43.05;102276.34;2392110;28;47970;-77
2022/05/01 00:23:33;;;;;;;;;14.00;10.00;;;;;13.20;43.23;102282.47;2385735;28;45318;-77
2022/05/01 00:24:43;;;;;;;;;11.25;10.75;;;;;13.20;43.15;102274.56;2396470;28;45526;-76
2022/05/01 00:25:53;;;;;;;;;17.25;11.75;;;;;13.21;43.26;102272.78;2399416;28;45295;-76
2022/05/01 00:27:04;;;;;;;;;9.75;9.75;;;;;13.21;43.12;102276.28;2397079;28;46496;-77
2022/05/01 00:28:15;;;;;;;;;12.75;11.75;;;;;13.22;43.25;102272.75;2396722;28;45243;-76
2022/05/01 00:29:26;;;;;;;;;15.00;11.50;;;;;13.22;43.12;102275.38;2398791;28;45434;-76
2022/05/01 00:30:37;;;;;;;;;11.50;11.00;;;;;13.23;43.20;102277.13;2401752;28;44586;-76
2022/05/01 00:31:47;;;;;;;;;15.00;11.25;;;;;13.22;43.39;102270.09;2402883;28;45282;-76
2022/05/01 00:36:28;;;;;;;;;14.00;13.00;;;;;13.16;43.42;102275.53;2384094;28;45331;-76
2022/05/01 00:37:38;;;;;;;;;11.75;10.50;;;;;13.14;43.45;102269.38;2383297;28;46488;-76
2022/05/01 00:38:49;;;;;;;;;16.50;14.00;;;;;13.12;43.43;102276.47;2384304;28;45220;-76
2022/05/01 00:40:00;;;;;;;;;19.00;12.25;;;;;13.09;43.22;102269.47;2384054;28;46160;-76
2022/05/01 00:41:11;;;;;;;;;16.75;15.25;;;;;13.09;43.69;102276.53;2384032;28;45203;-76
2022/05/01 00:42:22;;;;;;;;;14.50;12.00;;;;;13.07;43.96;102270.38;2393844;28;45344;-76
2022/05/01 00:43:57;;;;;;;;;17.00;10.50;;;;;13.07;43.63;102270.38;2394678;28;45287;-76
2022/05/01 00:45:08;;;;;;;;;13.75;10.25;;;;;13.04;43.84;102277.47;2394485;28;45545;-76
2022/05/01 00:46:19;;;;;;;;;15.75;12.50;;;;;13.02;43.85;102273.13;2384337;28;45346;-76
2022/05/01 00:47:29;;;;;;;;;10.50;9.75;;;;;13.01;43.83;102272.25;2395646;28;48039;-76
2022/05/01 00:48:39;;;;;;;;;17.75;12.75;;;;;13.01;43.95;102266.97;2400912;28;45349;-77
2022/05/01 00:49:50;;;;;;;;;13.00;10.50;;;;;13.00;43.98;102267.88;2398786;28;46255;-77
2022/05/01 00:51:00;;;;;;;;;17.00;12.25;;;;;13.03;43.94;102264.31;2403092;28;44618;-77
2022/05/01 00:52:11;;;;;;;;;16.25;12.00;;;;;13.03;43.73;102266.97;2403838;28;45333;-76
2022/05/01 00:53:22;;;;;;;;;16.75;13.50;;;;;13.00;43.78;102261.72;2396500;28;44669;-76
2022/05/01 00:54:32;;;;;;;;;14.50;14.50;;;;;12.98;44.05;102266.16;2387913;28;47134;-76
2022/05/01 00:55:44;;;;;;;;;15.25;13.50;;;;;12.94;43.67;102262.69;2393926;28;45163;-76
2022/05/01 00:56:56;;;;;;;;;13.50;11.50;;;;;12.95;43.93;102272.38;2397738;28;46073;-76
2022/05/01 00:58:07;;;;;;;;;16.75;14.25;;;;;12.91;44.27;102260.16;2403844;28;45265;-76
2022/05/01 00:59:18;;;;;;;;;15.50;11.25;;;;;12.91;44.10;102265.41;2403244;28;45625;-76
2022/05/01 01:00:29;;;;;;;;;14.25;11.25;;;;;12.89;44.25;102261.94;2403918;28;45238;-76
2022/05/01 01:01:44;;;;;;;;;12.25;11.25;;;;;12.85;44.18;102265.50;2403838;28;45579;-76
2022/05/01 01:02:55;;;;;;;;;15.00;13.75;;;;;12.81;44.45;102260.31;2403995;28;45267;-76
2022/05/01 01:04:05;;;;;;;;;17.50;12.25;;;;;12.76;44.11;102256.88;2393748;28;46966;-76
2022/05/01 01:05:16;;;;;;;;;22.00;13.00;;;;;12.76;44.38;102258.66;2390511;28;45200;-77
2022/05/01 01:06:29;;;;;;;;;16.75;14.75;;;;;12.74;44.50;102261.28;2394075;28;45535;-79
2022/05/01 01:07:39;;;;;;;;;12.25;11.75;;;;;12.75;44.74;102260.41;2400146;28;45230;-77
2022/05/01 01:08:50;;;;;;;;;15.00;14.00;;;;;12.75;44.49;102254.25;2394394;28;45373;-77
2022/05/01 01:10:01;;;;;;;;;11.50;11.00;;;;;12.77;44.56;102255.09;2394304;28;44872;-78
2022/05/01 01:11:11;;;;;;;;;12.25;10.75;;;;;12.76;44.92;102256.88;2394242;28;46447;-78
2022/05/01 01:13:55;;;;;;;;;15.00;11.75;;;;;12.74;44.45;102248.09;2401028;28;45475;-80
2022/05/01 01:15:08;;;;;;;;;12.50;12.50;;;;;12.73;44.43;102251.66;2402328;28;46781;-80
2022/05/01 01:16:20;;;;;;;;;16.75;14.25;;;;;12.71;44.78;102253.47;2403646;28;45393;-80
2022/05/01 01:17:30;;;;;;;;;17.50;15.25;;;;;12.71;44.67;102245.53;2403738;28;45333;-80
2022/05/01 01:18:40;;;;;;;;;16.75;13.75;;;;;12.71;44.68;102245.53;2398350;28;46233;-80
2022/05/01 01:19:51;;;;;;;;;16.00;12.00;;;;;12.71;44.95;102254.34;2401716;28;44675;-80
2022/05/01 01:21:01;;;;;;;;;22.00;13.00;;;;;12.73;44.29;102250.78;2403553;28;45392;-80
2022/05/01 01:22:12;;;;;;;;;13.25;12.75;;;;;12.71;44.58;102249.06;2402084;28;44704;-80
2022/05/01 01:23:23;;;;;;;;;15.25;12.25;;;;;12.72;44.72;102252.53;2401471;28;47768;-78
2022/05/01 01:24:37;;;;;;;;;21.25;18.50;;;;;12.73;44.92;102250.78;2393359;28;45793;-78
2022/05/01 01:25:48;;;;;;;;;14.50;14.00;;;;;12.69;44.86;102258.75;2384012;28;47481;-77
2022/05/01 01:26:59;;;;;;;;;18.50;15.00;;;;;12.67;44.83;102249.09;2387475;28;45295;-76
2022/05/01 01:28:10;;;;;;;;;16.75;14.75;;;;;12.62;44.91;102249.19;2394622;28;45458;-76
2022/05/01 01:32:22;;;;;;;;;18.50;17.00;;;;;12.58;44.96;102248.41;2401432;28;45522;-76
2022/05/01 01:33:33;;;;;;;;;16.00;14.75;;;;;12.56;45.23;102249.31;2399811;28;46330;-76
2022/05/01 01:34:44;;;;;;;;;14.75;13.50;;;;;12.56;45.42;102250.19;2384111;28;45461;-76
2022/05/01 01:35:58;;;;;;;;;16.25;14.75;;;;;12.56;45.36;102247.56;2385668;28;46635;-76
2022/05/01 01:37:11;;;;;;;;;12.75;12.75;;;;;12.54;45.52;102253.75;2384072;28;45156;-76
2022/05/01 01:38:21;;;;;;;;;13.00;12.50;;;;;12.50;45.08;102250.28;2387295;28;47927;-76
2022/05/01 01:39:32;;;;;;;;;17.00;14.50;;;;;12.44;45.35;102246.00;2384899;28;45405;-76
2022/05/01 01:40:54;;;;;;;;;16.25;14.25;;;;;12.42;45.47;102249.56;2386721;28;45646;-77
2022/05/01 01:42:07;;;;;;;;;21.75;14.25;;;;;12.36;45.34;102243.47;2399433;28;45548;-82
2022/05/01 01:43:22;;;;;;;;;20.75;17.50;;;;;12.37;45.74;102250.47;2402243;28;48104;-82
2022/05/01 01:44:37;;;;;;;;;14.75;11.50;;;;;12.36;45.58;102246.13;2393452;28;44702;-77
2022/05/01 01:45:47;;;;;;;;;18.25;16.50;;;;;12.36;45.59;102245.25;2387556;28;45320;-77
2022/05/01 01:46:57;;;;;;;;;16.25;15.50;;;;;12.35;45.85;102246.13;2400677;28;44635;-77
2022/05/01 01:48:16;;;;;;;;;21.00;17.75;;;;;12.35;45.67;102248.75;2403468;28;46498;-77
2022/05/01 01:49:26;;;;;;;;;16.75;16.00;;;;;12.33;45.65;102247.91;2398212;28;45229;-77
2022/05/01 01:50:36;;;;;;;;;17.25;17.25;;;;;12.33;45.80;102243.53;2393330;28;46225;-77
2022/05/01 01:51:47;;;;;;;;;21.25;16.75;;;;;12.33;45.58;102248.78;2396342;28;45957;-77
2022/05/01 01:52:57;;;;;;;;;16.75;15.75;;;;;12.32;45.82;102248.84;2403469;28;46258;-77
2022/05/01 01:54:08;;;;;;;;;18.50;15.75;;;;;12.33;45.72;102248.78;2395039;28;45211;-77
2022/05/01 01:55:18;;;;;;;;;15.75;15.75;;;;;12.31;45.81;102241.81;2397153;28;45582;-77
2022/05/01 01:56:30;;;;;;;;;19.75;16.75;;;;;12.29;45.77;102243.59;2402012;28;45227;-77
2022/05/01 01:57:40;;;;;;;;;17.25;16.50;;;;;12.25;45.80;102253.31;2403011;28;46616;-77
2022/05/01 01:58:51;;;;;;;;;21.25;17.75;;;;;12.23;46.08;102253.34;2403445;28;44783;-77
2022/05/01 02:00:01;;;;;;;;;20.25;16.25;;;;;12.20;46.02;102250.75;2395041;28;45274;-77
2022/05/01 02:01:11;;;;;;;;;21.00;17.75;;;;;12.19;46.17;102249.03;2396708;28;44782;-77
2022/05/01 02:02:22;;;;;;;;;18.50;16.00;;;;;12.18;46.19;102246.41;2400272;28;45569;-77
2022/05/01 02:03:36;;;;;;;;;16.75;15.00;;;;;12.17;46.18;102244.66;2399765;28;45278;-77
2022/05/01 02:04:46;;;;;;;;;20.00;18.75;;;;;12.15;46.36;102242.03;2394644;28;46215;-77
2022/05/01 02:05:57;;;;;;;;;12.75;12.75;;;;;12.14;46.24;102241.19;2403402;28;44608;-77
2022/05/01 02:07:07;;;;;;;;;21.50;20.00;;;;;12.15;46.46;102245.56;2395990;28;46427;-77
2022/05/01 02:08:18;;;;;;;;;20.75;17.75;;;;;12.14;46.26;102248.22;2394062;28;45381;-77
2022/05/01 02:09:30;;;;;;;;;22.50;20.00;;;;;12.12;46.31;102244.72;2383903;28;46978;-77
2022/05/01 02:10:41;;;;;;;;;19.00;17.75;;;;;12.11;46.45;102241.19;2386880;28;45294;-77
2022/05/01 02:11:53;;;;;;;;;19.00;18.75;;;;;12.10;46.48;102236.81;2401140;28;45362;-75
2022/05/01 02:13:04;;;;;;;;;21.50;20.25;;;;;12.10;46.45;102242.06;2403438;28;45269;-76
2022/05/01 02:14:14;;;;;;;;;22.25;18.25;;;;;12.10;46.49;102236.81;2403320;28;46298;-76
2022/05/01 02:15:24;;;;;;;;;25.50;18.25;;;;;12.09;46.65;102236.84;2397242;28;44704;-76
2022/05/01 02:16:35;;;;;;;;;20.00;17.00;;;;;12.10;46.71;102236.81;2395754;28;46498;-76
2022/05/01 02:17:50;;;;;;;;;14.50;13.00;;;;;12.07;47.00;102231.59;2403641;28;45237;-76
2022/05/01 02:19:01;;;;;;;;;22.25;20.50;;;;;12.04;46.55;102229.00;2403184;28;45465;-76
2022/05/01 02:20:11;;;;;;;;;17.00;17.00;;;;;12.02;46.75;102228.16;2399333;28;45823;-76
2022/05/01 02:21:34;;;;;;;;;17.00;17.00;;;;;12.01;46.78;102231.69;2393078;28;45926;-76
2022/05/01 02:22:44;;;;;;;;;17.75;16.50;;;;;11.98;46.96;102229.09;2383944;28;45204;-76
2022/05/01 02:23:54;;;;;;;;;22.25;21.75;;;;;11.99;46.95;102233.47;2392699;28;45263;-76
2022/05/01 02:25:07;;;;;;;;;23.25;19.50;;;;;11.98;46.92;102231.72;2401918;28;45234;-76
2022/05/01 02:26:18;;;;;;;;;24.50;20.50;;;;;11.97;47.02;102230.00;2392887;28;46111;-77
2022/05/01 02:27:29;;;;;;;;;23.00;17.25;;;;;11.95;46.93;102231.78;2386496;28;45317;-77
2022/05/01 02:28:39;;;;;;;;;20.25;19.25;;;;;11.93;47.08;102230.03;2395163;28;46260;-77
2022/05/01 02:29:49;;;;;;;;;23.25;19.25;;;;;11.95;46.92;102232.63;2401810;28;45250;-77
2022/05/01 02:31:00;;;;;;;;;21.25;20.25;;;;;11.93;46.90;102240.56;2392838;28;46486;-77
2022/05/01 02:32:10;;;;;;;;;22.75;20.75;;;;;11.89;47.23;102232.75;2399223;28;45334;-76
2022/05/01 02:33:21;;;;;;;;;17.50;17.50;;;;;11.87;47.22;102232.78;2405633;28;48005;-76
2022/05/01 02:34:31;;;;;;;;;23.50;17.50;;;;;11.85;47.28;102231.94;2398289;28;45233;-76
2022/05/01 02:35:41;;;;;;;;;19.50;17.25;;;;;11.86;47.38;102224.88;2393371;28;45463;-76
2022/05/01 02:36:52;;;;;;;;;25.75;20.25;;;;;11.85;47.35;102215.25;2397654;28;45350;-76
2022/05/01 02:38:03;;;;;;;;;17.00;14.50;;;;;11.84;47.39;102217.00;2403068;28;46251;-76
2022/05/01 02:39:13;;;;;;;;;22.00;17.50;;;;;11.87;47.39;102224.00;2403025;28;44805;-76
2022/05/01 02:40:24;;;;;;;;;25.25;19.50;;;;;11.88;47.83;102221.31;2402942;28;45340;-76
2022/05/01 02:41:35;;;;;;;;;21.50;19.25;;;;;11.88;47.36;102215.16;2401520;28;45249;-75
2022/05/01 02:42:45;;;;;;;;;18.25;15.50;;;;;11.86;47.36;102217.84;2403169;28;45440;-76
2022/05/01 02:43:56;;;;;;;;;23.50;19.50;;;;;11.86;47.06;102215.22;2403010;28;45421;-78
2022/05/01 02:45:07;;;;;;;;;26.00;23.75;;;;;11.85;47.60;102210.84;2397788;28;45543;-78
2022/05/01 02:46:17;;;;;;;;;22.50;19.75;;;;;11.82;47.58;102214.41;2395164;28;44715;-77
2022/05/01 02:47:28;;;;;;;;;19.00;18.50;;;;;11.84;47.64;102211.72;2393754;28;45447;-77
2022/05/01 02:48:38;;;;;;;;;18.75;17.75;;;;;11.83;47.67;102212.59;2393856;28;45460;-77
2022/05/01 02:49:49;;;;;;;;;24.00;19.75;;;;;11.85;47.59;102217.88;2393491;28;46449;-77
2022/05/01 02:50:59;;;;;;;;;20.25;18.00;;;;;11.82;47.54;102211.75;2393466;28;44560;-77
2022/05/01 02:52:10;;;;;;;;;24.50;21.75;;;;;11.81;47.68;102214.41;2397570;28;45242;-77
2022/05/01 02:53:20;;;;;;;;;21.00;18.25;;;;;11.78;47.52;102214.44;2399709;28;45471;-79
2022/05/01 02:54:31;;;;;;;;;23.25;21.00;;;;;11.75;47.77;102210.13;2383578;28;47202;-79
2022/05/01 02:55:41;;;;;;;;;19.50;19.25;;;;;11.75;47.85;102204.84;2394707;28;45338;-79
2022/05/01 02:56:51;;;;;;;;;22.25;19.75;;;;;11.75;47.82;102206.59;2402824;28;45360;-79
2022/05/01 02:58:02;;;;;;;;;24.50;21.25;;;;;11.77;47.85;102208.31;2400084;28;45353;-79
2022/05/01 02:59:13;;;;;;;;;19.75;19.00;;;;;11.75;47.77;102194.31;2393614;28;45448;-79
2022/05/01 03:00:23;;;;;;;;;25.25;22.25;;;;;11.78;47.82;102202.16;2393532;28;45144;-79
2022/05/01 03:01:33;;;;;;;;;22.75;22.00;;;;;11.81;48.28;102210.00;2395263;28;46330;-79
2022/05/01 03:02:46;;;;;;;;;27.00;23.00;;;;;11.82;48.08;102202.97;2402691;28;45322;-78
2022/05/01 03:03:56;;;;;;;;;21.00;18.75;;;;;11.79;48.04;102203.91;2402750;28;45223;-79
2022/05/01 03:05:07;;;;;;;;;23.75;20.75;;;;;11.79;47.82;102208.28;2401506;28;45139;-79
2022/05/01 03:06:17;;;;;;;;;22.25;20.00;;;;;11.77;47.94;102200.41;2393399;28;47943;-79
2022/05/01 03:07:27;;;;;;;;;23.75;20.50;;;;;11.78;47.88;102202.16;2394236;28;45307;-79
2022/05/01 03:08:38;;;;;;;;;22.75;19.00;;;;;11.76;47.87;102198.66;2402436;28;46260;-79
2022/05/01 03:09:48;;;;;;;;;19.25;18.50;;;;;11.75;48.01;102190.81;2402831;28;44607;-78
2022/05/01 03:10:58;;;;;;;;;23.50;20.25;;;;;11.74;47.88;102195.19;2402810;28;45254;-75
2022/05/01 03:12:09;;;;;;;;;22.75;20.50;;;;;11.74;48.08;102194.31;2399697;28;45302;-75
2022/05/01 03:13:19;;;;;;;;;27.50;22.00;;;;;11.73;48.47;102196.06;2398495;28;46422;-75
2022/05/01 03:14:30;;;;;;;;;24.25;20.50;;;;;11.72;48.20;102193.47;2393783;28;44562;-77
2022/05/01 03:15:41;;;;;;;;;22.75;19.75;;;;;11.70;48.00;102193.50;2399398;28;45666;-78
2022/05/01 03:16:52;;;;;;;;;24.00;21.50;;;;;11.69;48.17;102197.88;2402771;28;45178;-77
2022/05/01 03:22:30;;;;;;;;;25.75;22.50;;;;;11.70;48.12;102204.88;2400658;28;45383;-77
2022/05/01 03:23:40;;;;;;;;;18.50;16.25;;;;;11.70;48.65;102199.63;2397251;28;45985;-77
2022/05/01 03:24:51;;;;;;;;;22.00;19.25;;;;;11.72;48.44;102198.72;2395134;28;44625;-77
2022/05/01 03:26:01;;;;;;;;;20.25;18.50;;;;;11.74;48.27;102194.31;2402502;28;45423;-77
2022/05/01 03:27:12;;;;;;;;;21.50;19.50;;;;;11.76;48.36;102192.53;2402864;28;44752;-77
2022/05/01 03:28:22;;;;;;;;;21.25;19.00;;;;;11.77;48.43;102191.63;2398703;28;45305;-77
2022/05/01 03:29:32;;;;;;;;;23.75;19.75;;;;;11.79;48.44;102197.75;2393440;28;45250;-77
2022/05/01 03:30:43;;;;;;;;;26.00;22.00;;;;;11.76;48.25;102187.25;2393854;28;45450;-77
2022/05/01 03:31:54;;;;;;;;;21.25;17.50;;;;;11.77;48.20;102189.88;2402098;28;45373;-76
2022/05/01 03:33:07;;;;;;;;;21.25;18.75;;;;;11.75;48.34;102188.16;2403150;28;45831;-76
2022/05/01 03:34:17;;;;;;;;;23.25;19.50;;;;;11.77;48.52;102186.38;2409800;28;44646;-76
2022/05/01 03:35:28;;;;;;;;;20.25;19.00;;;;;11.75;48.66;102181.13;2383054;28;46988;-76
2022/05/01 03:36:39;;;;;;;;;25.00;20.25;;;;;11.77;48.42;102189.00;2390461;28;45279;-76
2022/05/01 03:37:50;;;;;;;;;23.75;19.75;;;;;11.75;48.34;102182.91;2383539;28;47804;-75
2022/05/01 03:39:01;;;;;;;;;24.75;18.75;;;;;11.73;48.45;102182.06;2391251;28;45482;-76
2022/05/01 03:40:15;;;;;;;;;21.00;18.00;;;;;11.72;48.40;102181.19;2393503;28;46463;-76
2022/05/01 03:41:28;;;;;;;;;22.75;22.25;;;;;11.71;48.34;102182.06;2401579;28;44609;-76
2022/05/01 03:42:39;;;;;;;;;21.25;20.25;;;;;11.70;48.53;102183.81;2401806;28;46571;-76
2022/05/01 03:43:49;;;;;;;;;23.25;17.25;;;;;11.68;48.24;102177.69;2392135;28;44674;-76
2022/05/01 03:44:59;;;;;;;;;22.50;20.50;;;;;11.67;48.72;102181.25;2395282;28;45360;-75
2022/05/01 03:46:10;;;;;;;;;22.50;18.50;;;;;11.67;48.46;102185.63;2397290;28;45491;-75
2022/05/01 03:47:20;;;;;;;;;19.25;18.50;;;;;11.65;48.44;102183.03;2393276;28;45358;-75
2022/05/01 03:48:32;;;;;;;;;23.75;22.25;;;;;11.64;48.48;102186.53;2391203;28;44718;-75
2022/05/01 03:49:42;;;;;;;;;20.00;18.75;;;;;11.62;48.53;102185.69;2395003;28;45410;-75
2022/05/01 03:50:54;;;;;;;;;22.75;19.00;;;;;11.60;48.50;102179.59;2392159;28;45386;-75
2022/05/01 03:52:04;;;;;;;;;20.75;18.75;;;;;11.60;48.63;102182.22;2395486;28;45504;-75
2022/05/01 03:53:15;;;;;;;;;23.50;21.25;;;;;11.58;48.68;102184.84;2402725;28;45464;-75
2022/05/01 03:54:25;;;;;;;;;25.75;22.50;;;;;11.56;48.68;102177.88;2402686;28;45961;-75
2022/05/01 03:55:36;;;;;;;;;21.00;20.00;;;;;11.56;48.70;102184.00;2391906;28;44706;-75
2022/05/01 03:56:46;;;;;;;;;24.25;21.25;;;;;11.55;48.41;102181.41;2395371;28;46312;-75
2022/05/01 03:57:58;;;;;;;;;21.50;21.50;;;;;11.55;49.16;102182.28;2402003;28;45343;-75
2022/05/01 03:59:08;;;;;;;;;19.50;18.00;;;;;11.53;48.96;102175.31;2403016;28;46074;-75
2022/05/01 04:00:19;;;;;;;;;20.25;16.75;;;;;11.52;48.97;102178.81;2392931;28;45303;-75
2022/05/01 04:01:31;;;;;;;;;21.25;20.75;;;;;11.51;48.90;102177.94;2394025;28;47921;-76
2022/05/01 04:02:42;;;;;;;;;18.75;16.75;;;;;11.50;48.75;102172.72;2396561;28;45485;-76
2022/05/01 04:03:53;;;;;;;;;19.50;19.50;;;;;11.50;48.80;102180.59;2404150;28;46330;-76
2022/05/01 04:05:04;;;;;;;;;22.25;20.00;;;;;11.49;48.89;102177.09;2403619;28;44774;-76
2022/05/01 04:06:14;;;;;;;;;19.50;17.75;;;;;11.50;49.29;102178.84;2389607;28;47558;-76
2022/05/01 04:07:24;;;;;;;;;22.25;18.75;;;;;11.50;49.04;102177.97;2396879;28;45350;-76
2022/05/01 04:08:35;;;;;;;;;21.75;21.25;;;;;11.51;48.74;102177.94;2404169;28;46274;-76
2022/05/01 04:09:45;;;;;;;;;22.75;18.25;;;;;11.54;49.39;102179.66;2404201;28;45222;-76
2022/05/01 04:10:55;;;;;;;;;20.25;18.50;;;;;11.52;48.92;102181.44;2403076;28;45373;-76
2022/05/01 04:12:06;;;;;;;;;20.75;16.50;;;;;11.53;48.96;102178.78;2404202;28;45196;-76
2022/05/01 04:13:18;;;;;;;;;18.75;18.75;;;;;11.54;49.25;102179.66;2403101;28;46215;-77
2022/05/01 04:14:28;;;;;;;;;18.50;16.75;;;;;11.53;49.01;102175.31;2404412;28;44868;-76
2022/05/01 04:15:40;;;;;;;;;20.50;17.25;;;;;11.53;48.96;102173.50;2394932;28;45563;-78
2022/05/01 04:16:50;;;;;;;;;21.50;20.00;;;;;11.53;49.03;102167.41;2394819;28;44774;-78
2022/05/01 04:18:02;;;;;;;;;22.50;20.25;;;;;11.53;48.81;102168.25;2394705;28;45331;-78
2022/05/01 04:19:13;;;;;;;;;22.75;22.50;;;;;11.53;48.90;102175.31;2394932;28;45343;-78
2022/05/01 04:20:25;;;;;;;;;21.75;17.75;;;;;11.53;48.83;102172.66;2394198;28;46372;-78
2022/05/01 04:21:37;;;;;;;;;28.00;21.25;;;;;11.51;48.92;102177.94;2402530;28;44668;-78
2022/05/01 04:22:48;;;;;;;;;15.75;15.75;;;;;11.48;48.88;102175.38;2393204;28;47400;-78
2022/05/01 04:23:59;;;;;;;;;26.25;22.00;;;;;11.43;49.01;102167.50;2396569;28;45212;-78
2022/05/01 04:25:21;;;;;;;;;14.25;13.75;;;;;11.41;48.92;102171.09;2403503;28;45354;-77
2022/05/01 04:26:31;;;;;;;;;24.25;19.50;;;;;11.36;49.02;102176.38;2401146;28;45544;-76
2022/05/01 04:27:44;;;;;;;;;26.00;20.50;;;;;11.34;49.16;102173.78;2394696;28;46248;-76
2022/05/01 04:30:26;;;;;;;;;21.75;18.00;;;;;11.32;49.05;102169.44;2393989;28;45357;-76
2022/05/01 04:31:36;;;;;;;;;27.50;21.75;;;;;11.32;49.28;102172.06;2402619;28;45171;-76
2022/05/01 04:32:51;;;;;;;;;19.75;17.25;;;;;11.30;49.25;102172.09;2394861;28;46188;-76
2022/05/01 04:34:01;;;;;;;;;22.50;20.50;;;;;11.27;49.15;102165.97;2402749;28;45277;-76
2022/05/01 04:35:11;;;;;;;;;20.00;18.50;;;;;11.25;49.16;102177.41;2385881;28;45916;-76
2022/05/01 04:36:22;;;;;;;;;24.00;21.50;;;;;11.24;49.32;102166.88;2387154;28;45232;-76
2022/05/01 04:37:32;;;;;;;;;22.00;22.00;;;;;11.25;49.37;102173.91;2386816;28;48260;-76
2022/05/01 04:38:42;;;;;;;;;24.75;21.75;;;;;11.24;49.24;102175.66;2394965;28;45265;-76
2022/05/01 04:39:53;;;;;;;;;22.25;20.75;;;;;11.23;49.16;102180.94;2403803;28;45325;-75
2022/05/01 04:41:04;;;;;;;;;23.50;21.25;;;;;11.23;49.54;102173.06;2393893;28;44728;-76
2022/05/01 04:42:15;;;;;;;;;23.25;19.25;;;;;11.24;49.40;102175.66;2387484;28;45319;-76
2022/05/01 04:43:28;;;;;;;;;24.25;23.75;;;;;11.23;49.33;102173.94;2394588;28;45222;-78
2022/05/01 04:44:38;;;;;;;;;25.00;22.25;;;;;11.23;49.25;102181.81;2388294;28;47106;-77
2022/05/01 04:45:51;;;;;;;;;21.25;19.25;;;;;11.24;49.84;102186.19;2394160;28;45183;-78
2022/05/01 04:47:01;;;;;;;;;19.75;17.25;;;;;11.24;49.36;102177.41;2403075;28;45661;-78
2022/05/01 04:48:13;;;;;;;;;28.75;22.50;;;;;11.22;49.40;102180.06;2403739;28;45274;-78
2022/05/01 04:49:23;;;;;;;;;24.00;21.75;;;;;11.21;49.46;102177.47;2400435;28;45649;-79
2022/05/01 04:50:35;;;;;;;;;20.75;20.75;;;;;11.20;49.63;102176.59;2399112;28;45343;-86
2022/05/01 04:51:47;;;;;;;;;20.75;19.50;;;;;11.21;49.83;102167.78;2395631;28;45260;-84
2022/05/01 04:53:00;;;;;;;;;24.50;23.75;;;;;11.22;49.84;102174.81;2403386;28;45438;-85
2022/05/01 04:54:10;;;;;;;;;25.50;21.50;;;;;11.22;49.41;102172.19;2402645;28;45509;-80
2022/05/01 04:55:21;;;;;;;;;24.00;22.25;;;;;11.23;49.49;102168.66;2403939;28;45385;-77
2022/05/01 04:58:01;;;;;;;;;24.00;21.25;;;;;11.29;49.80;102174.72;2397657;28;45478;-77
2022/05/01 04:59:11;;;;;;;;;32.00;26.00;;;;;11.29;49.75;102177.34;2398585;28;45384;-77
2022/05/01 05:00:22;;;;;;;;;29.50;22.00;;;;;11.29;49.81;102183.50;2400520;28;45529;-76
2022/05/01 05:01:32;;;;;;;;;23.50;23.00;;;;;11.29;49.74;102175.59;2395543;28;45480;-76
2022/05/01 05:02:43;;;;;;;;;25.00;22.25;;;;;11.29;49.79;102185.25;2403987;28;45159;-76
2022/05/01 05:03:53;;;;;;;;;25.75;23.25;;;;;11.29;49.58;102178.22;2396296;28;45619;-76
2022/05/01 05:05:06;;;;;;;;;25.75;22.50;;;;;11.29;49.48;102180.88;2394229;28;45179;-76
2022/05/01 05:06:16;;;;;;;;;28.50;21.50;;;;;11.29;49.54;102178.22;2394161;28;47100;-76
2022/05/01 05:07:26;;;;;;;;;25.25;24.00;;;;;11.29;49.88;102180.88;2384439;28;45353;-76
2022/05/01 05:10:08;;;;;;;;;28.50;24.25;;;;;11.28;49.58;102192.28;2396804;28;45218;-76
2022/05/01 05:11:18;;;;;;;;;25.75;21.25;;;;;11.29;49.56;102186.13;2394220;28;48265;-76
2022/05/01 05:12:29;;;;;;;;;20.50;18.25;;;;;11.30;49.57;102187.00;2403417;28;44588;-76
2022/05/01 05:13:39;;;;;;;;;23.50;22.00;;;;;11.30;49.65;102184.38;2400173;28;45272;-76
2022/05/01 05:14:52;;;;;;;;;30.00;25.00;;;;;11.29;49.71;102194.03;2398278;28;45253;-76
2022/05/01 05:16:08;;;;;;;;;23.00;21.25;;;;;11.28;49.77;102194.94;2403741;28;46348;-76
2022/05/01 05:17:19;;;;;;;;;25.25;23.00;;;;;11.28;49.76;102194.94;2403864;28;44517;-77
2022/05/01 05:18:29;;;;;;;;;27.50;25.50;;;;;11.29;50.06;102190.50;2395668;28;45524;-77
2022/05/01 05:19:39;;;;;;;;;26.25;21.75;;;;;11.31;49.74;102197.50;2403008;28;45268;-77
2022/05/01 05:20:50;;;;;;;;;24.50;23.00;;;;;11.31;49.80;102194.03;2396825;28;45422;-76
2022/05/01 05:22:00;;;;;;;;;24.25;22.25;;;;;11.31;49.79;102202.75;2394575;28;45502;-76
2022/05/01 05:23:11;;;;;;;;;22.75;22.75;;;;;11.29;49.61;102195.78;2397822;28;45416;-77
2022/05/01 05:24:21;;;;;;;;;24.50;21.25;;;;;11.29;49.81;102195.78;2403528;28;45384;-76
2022/05/01 05:25:31;;;;;;;;;24.50;22.25;;;;;11.30;49.97;102202.78;2383843;28;48003;-76
2022/05/01 05:26:42;;;;;;;;;25.50;21.00;;;;;11.29;49.60;102199.28;2390363;28;45504;-76
2022/05/01 05:27:52;;;;;;;;;25.50;23.50;;;;;11.29;49.94;102201.03;2394247;28;46333;-76
2022/05/01 05:29:03;;;;;;;;;24.00;22.75;;;;;11.33;50.07;102202.75;2399236;28;44773;-76
2022/05/01 05:30:14;;;;;;;;;29.25;24.00;;;;;11.32;50.20;102204.53;2398424;28;47204;-77
2022/05/01 05:31:24;;;;;;;;;26.00;23.50;;;;;11.30;49.58;102197.53;2393856;28;45362;-77
2022/05/01 05:32:35;;;;;;;;;28.25;22.50;;;;;11.31;50.15;102202.75;2403476;28;45983;-76
2022/05/01 05:33:45;;;;;;;;;22.00;21.50;;;;;11.31;49.97;102196.66;2396941;28;45159;-77
2022/05/01 05:34:55;;;;;;;;;27.25;24.50;;;;;11.31;50.00;102204.56;2386430;28;46887;-77
2022/05/01 05:36:06;;;;;;;;;25.00;23.75;;;;;11.30;49.96;102198.41;2393893;28;45276;-77
2022/05/01 05:37:18;;;;;;;;;27.00;23.00;;;;;11.32;49.91;102201.00;2394004;28;46330;-76
2022/05/01 05:38:28;;;;;;;;;23.25;22.00;;;;;11.32;49.87;102206.28;2393778;28;45147;-76
2022/05/01 05:39:38;;;;;;;;;26.75;24.75;;;;;11.32;49.81;102212.41;2399620;28;46159;-77
2022/05/01 05:40:49;;;;;;;;;22.50;21.75;;;;;11.32;50.03;102207.16;2403168;28;45286;-77